PWSweather.com
Personal Weather Stations
Station Observations
KCAOCEAN4
Jeffries Ranch, Oceanside, CA 92057

Jeffries RanchOceanside, CA 92057

Lat: 33.2463208, Lon: -117.25335080000002

Elevation: 207

Station Type: Davis Vantage Vue

jeffriesranchweather.com

High Low Average
Temperature 71.4°F21.9°C 41.0°F5.0°C 55.2°F12.9°C
Dew Point 52.7°F11.5°C 39.2°F4.0°C 44.3°F6.8°C
Winds 6.9 mph 11.1 kmh Calm Calm 3.0 mph SE4.8 kmh SE
Wind Gusts 12.1 mph19.5 kmh -- 5.0 mph8.0 kmh
Humidity 98% 38% 71%
Pressure 30.24 in1024.0 mb 30.12 in1020.0 mb -
Precipitation 0.01 in0.3 mm - -
Hour Temp Dew Point Humidity Winds Wind Gusts Pressure Precip Precip Rate Daily Precip Total
12:06 AM 46.0°F7.8°C 44.6°F7.0°C 95% Calm Calm 0.9 mph1.4 kmh 30.17 in1021.7 mb 0.00 in0.0 mm 0.00 in0.0 mm 0.00 in0.0 mm
12:16 AM 46.0°F7.8°C 45.0°F7.2°C 96% 0.9 mph ENE1.4 kmh ENE 2.0 mph3.2 kmh 30.17 in1021.7 mb 0.00 in0.0 mm 0.00 in0.0 mm 0.00 in0.0 mm
12:26 AM 45.7°F7.6°C 44.4°F6.9°C 95% Calm Calm 0.9 mph1.4 kmh 30.17 in1021.7 mb 0.00 in0.0 mm 0.00 in0.0 mm 0.00 in0.0 mm
12:36 AM 45.1°F7.3°C 44.1°F6.7°C 96% 0.9 mph ENE1.4 kmh ENE 2.9 mph4.7 kmh 30.17 in1021.7 mb 0.00 in0.0 mm 0.00 in0.0 mm 0.00 in0.0 mm
12:46 AM 45.0°F7.2°C 43.9°F6.6°C 96% 2.9 mph E4.7 kmh E 6.0 mph9.7 kmh 30.17 in1021.7 mb 0.00 in0.0 mm 0.00 in0.0 mm 0.00 in0.0 mm
12:56 AM 44.8°F7.1°C 43.7°F6.5°C 96% 2.0 mph ENE3.2 kmh ENE 4.0 mph6.4 kmh 30.17 in1021.7 mb 0.00 in0.0 mm 0.00 in0.0 mm 0.00 in0.0 mm
01:06 AM 44.6°F7.0°C 43.5°F6.4°C 96% 0.9 mph E1.4 kmh E 2.9 mph4.7 kmh 30.17 in1021.7 mb 0.00 in0.0 mm 0.00 in0.0 mm 0.00 in0.0 mm
01:16 AM 44.6°F7.0°C 43.5°F6.4°C 96% 2.0 mph NE3.2 kmh NE 2.9 mph4.7 kmh 30.18 in1022.0 mb 0.00 in0.0 mm 0.00 in0.0 mm 0.00 in0.0 mm
01:26 AM 44.4°F6.9°C 43.3°F6.3°C 96% 0.9 mph ENE1.4 kmh ENE 2.9 mph4.7 kmh 30.18 in1022.0 mb 0.00 in0.0 mm 0.00 in0.0 mm 0.00 in0.0 mm
01:36 AM 44.4°F6.9°C 43.3°F6.3°C 96% 2.0 mph NNE3.2 kmh NNE 4.9 mph7.9 kmh 30.18 in1022.0 mb 0.00 in0.0 mm 0.00 in0.0 mm 0.00 in0.0 mm
01:46 AM 44.2°F6.8°C 43.2°F6.2°C 96% 2.0 mph ENE3.2 kmh ENE 4.0 mph6.4 kmh 30.18 in1022.0 mb 0.00 in0.0 mm 0.00 in0.0 mm 0.00 in0.0 mm
01:56 AM 44.1°F6.7°C 43.0°F6.1°C 96% 0.9 mph NE1.4 kmh NE 4.0 mph6.4 kmh 30.18 in1022.0 mb 0.00 in0.0 mm 0.00 in0.0 mm 0.00 in0.0 mm
02:06 AM 43.9°F6.6°C 42.8°F6.0°C 96% Calm Calm 3.0 mph4.8 kmh 30.18 in1022.0 mb 0.00 in0.0 mm 0.00 in0.0 mm 0.00 in0.0 mm
02:16 AM 44.1°F6.7°C 43.3°F6.3°C 97% 0.9 mph ENE1.4 kmh ENE 4.0 mph6.4 kmh 30.18 in1022.0 mb 0.00 in0.0 mm 0.00 in0.0 mm 0.00 in0.0 mm
02:26 AM 44.1°F6.7°C 43.3°F6.3°C 97% 2.9 mph NE4.7 kmh NE 4.0 mph6.4 kmh 30.18 in1022.0 mb 0.00 in0.0 mm 0.00 in0.0 mm 0.00 in0.0 mm
02:36 AM 44.1°F6.7°C 43.0°F6.1°C 96% 2.0 mph NE3.2 kmh NE 4.0 mph6.4 kmh 30.18 in1022.0 mb 0.00 in0.0 mm 0.00 in0.0 mm 0.00 in0.0 mm
02:46 AM 44.1°F6.7°C 43.0°F6.1°C 96% 2.0 mph NE3.2 kmh NE 2.9 mph4.7 kmh 30.17 in1021.7 mb 0.00 in0.0 mm 0.00 in0.0 mm 0.00 in0.0 mm
02:56 AM 44.1°F6.7°C 43.0°F6.1°C 96% 2.9 mph ENE4.7 kmh ENE 4.0 mph6.4 kmh 30.17 in1021.7 mb 0.00 in0.0 mm 0.00 in0.0 mm 0.00 in0.0 mm
03:06 AM 43.9°F6.6°C 42.8°F6.0°C 96% 2.0 mph ENE3.2 kmh ENE 4.0 mph6.4 kmh 30.17 in1021.7 mb 0.00 in0.0 mm 0.00 in0.0 mm 0.00 in0.0 mm
03:16 AM 43.5°F6.4°C 42.4°F5.8°C 96% 0.9 mph E1.4 kmh E 2.9 mph4.7 kmh 30.18 in1022.0 mb 0.00 in0.0 mm 0.00 in0.0 mm 0.00 in0.0 mm
03:26 AM 43.3°F6.3°C 42.3°F5.7°C 96% Calm Calm 2.0 mph3.2 kmh 30.17 in1021.7 mb 0.00 in0.0 mm 0.00 in0.0 mm 0.00 in0.0 mm
03:36 AM 43.0°F6.1°C 41.9°F5.5°C 96% Calm Calm 0.9 mph1.4 kmh 30.17 in1021.7 mb 0.00 in0.0 mm 0.00 in0.0 mm 0.00 in0.0 mm
03:46 AM 42.8°F6.0°C 42.1°F5.6°C 97% Calm Calm -- 30.17 in1021.7 mb 0.00 in0.0 mm 0.00 in0.0 mm 0.00 in0.0 mm
03:56 AM 42.6°F5.9°C 41.9°F5.5°C 97% Calm Calm -- 30.17 in1021.7 mb 0.00 in0.0 mm 0.00 in0.0 mm 0.00 in0.0 mm
04:06 AM 42.4°F5.8°C 41.7°F5.4°C 97% Calm Calm -- 30.17 in1021.7 mb 0.00 in0.0 mm 0.00 in0.0 mm 0.00 in0.0 mm
04:16 AM 42.1°F5.6°C 41.4°F5.2°C 97% Calm Calm -- 30.18 in1022.0 mb 0.01 in0.3 mm 0.06 in1.5 mm 0.01 in0.3 mm
04:26 AM 42.1°F5.6°C 41.4°F5.2°C 97% Calm Calm -- 30.18 in1022.0 mb 0.01 in0.3 mm 0.00 in0.0 mm 0.01 in0.3 mm
04:36 AM 41.5°F5.3°C 40.8°F4.9°C 97% Calm Calm -- 30.18 in1022.0 mb 0.01 in0.3 mm 0.00 in0.0 mm 0.01 in0.3 mm
04:46 AM 41.5°F5.3°C 40.8°F4.9°C 97% Calm Calm -- 30.17 in1021.7 mb 0.01 in0.3 mm 0.00 in0.0 mm 0.01 in0.3 mm
04:56 AM 41.4°F5.2°C 40.6°F4.8°C 97% Calm Calm -- 30.18 in1022.0 mb 0.01 in0.3 mm 0.00 in0.0 mm 0.01 in0.3 mm
05:06 AM 41.2°F5.1°C 40.5°F4.7°C 97% Calm Calm -- 30.18 in1022.0 mb 0.01 in0.3 mm 0.00 in0.0 mm 0.01 in0.3 mm
05:16 AM 41.0°F5.0°C 40.3°F4.6°C 97% Calm Calm -- 30.18 in1022.0 mb 0.00 in0.0 mm 0.00 in0.0 mm 0.01 in0.3 mm
05:26 AM 41.4°F5.2°C 40.8°F4.9°C 98% Calm Calm -- 30.18 in1022.0 mb 0.00 in0.0 mm 0.00 in0.0 mm 0.01 in0.3 mm
05:36 AM 42.1°F5.6°C 41.5°F5.3°C 98% 0.9 mph NE1.4 kmh NE 4.0 mph6.4 kmh 30.18 in1022.0 mb 0.00 in0.0 mm 0.00 in0.0 mm 0.01 in0.3 mm
05:46 AM 42.4°F5.8°C 41.7°F5.4°C 97% 2.0 mph E3.2 kmh E 4.9 mph7.9 kmh 30.18 in1022.0 mb 0.00 in0.0 mm 0.00 in0.0 mm 0.01 in0.3 mm
05:56 AM 42.4°F5.8°C 41.7°F5.4°C 97% Calm Calm -- 30.18 in1022.0 mb 0.00 in0.0 mm 0.00 in0.0 mm 0.01 in0.3 mm
06:06 AM 42.4°F5.8°C 41.7°F5.4°C 97% 2.9 mph NE4.7 kmh NE 5.0 mph8.0 kmh 30.19 in1022.4 mb 0.00 in0.0 mm 0.00 in0.0 mm 0.01 in0.3 mm
06:16 AM 42.4°F5.8°C 41.4°F5.2°C 96% 0.9 mph E1.4 kmh E 2.9 mph4.7 kmh 30.19 in1022.4 mb 0.00 in0.0 mm 0.00 in0.0 mm 0.01 in0.3 mm
06:26 AM 42.4°F5.8°C 41.4°F5.2°C 96% 0.9 mph ENE1.4 kmh ENE 4.0 mph6.4 kmh 30.19 in1022.4 mb 0.00 in0.0 mm 0.00 in0.0 mm 0.01 in0.3 mm
06:36 AM 42.4°F5.8°C 41.4°F5.2°C 96% 2.0 mph NE3.2 kmh NE 4.0 mph6.4 kmh 30.19 in1022.4 mb 0.00 in0.0 mm 0.00 in0.0 mm 0.01 in0.3 mm
06:46 AM 42.6°F5.9°C 41.5°F5.3°C 96% 2.0 mph ENE3.2 kmh ENE 5.0 mph8.0 kmh 30.19 in1022.4 mb 0.00 in0.0 mm 0.00 in0.0 mm 0.01 in0.3 mm
06:56 AM 42.6°F5.9°C 41.5°F5.3°C 96% 4.0 mph NE6.4 kmh NE 8.1 mph13.0 kmh 30.20 in1022.7 mb 0.00 in0.0 mm 0.00 in0.0 mm 0.01 in0.3 mm
07:06 AM 42.6°F5.9°C 41.4°F5.2°C 95% 2.9 mph ENE4.7 kmh ENE 4.9 mph7.9 kmh 30.20 in1022.7 mb 0.00 in0.0 mm 0.00 in0.0 mm 0.01 in0.3 mm
07:16 AM 42.4°F5.8°C 41.2°F5.1°C 95% 2.0 mph ENE3.2 kmh ENE 4.9 mph7.9 kmh 30.20 in1022.7 mb 0.00 in0.0 mm 0.00 in0.0 mm 0.01 in0.3 mm
07:26 AM 42.3°F5.7°C 41.0°F5.0°C 95% 0.9 mph NE1.4 kmh NE 2.9 mph4.7 kmh 30.20 in1022.7 mb 0.00 in0.0 mm 0.00 in0.0 mm 0.01 in0.3 mm
07:36 AM 42.4°F5.8°C 41.2°F5.1°C 95% 0.9 mph E1.4 kmh E 5.0 mph8.0 kmh 30.20 in1022.7 mb 0.00 in0.0 mm 0.00 in0.0 mm 0.01 in0.3 mm
07:46 AM 43.0°F6.1°C 41.7°F5.4°C 95% 2.0 mph E3.2 kmh E 6.0 mph9.7 kmh 30.20 in1022.7 mb 0.00 in0.0 mm 0.00 in0.0 mm 0.01 in0.3 mm
07:56 AM 43.3°F6.3°C 41.7°F5.4°C 94% 2.0 mph ENE3.2 kmh ENE 6.0 mph9.7 kmh 30.21 in1023.0 mb 0.00 in0.0 mm 0.00 in0.0 mm 0.01 in0.3 mm
08:06 AM 44.2°F6.8°C 42.6°F5.9°C 94% 2.0 mph E3.2 kmh E 5.0 mph8.0 kmh 30.21 in1023.0 mb 0.00 in0.0 mm 0.00 in0.0 mm 0.01 in0.3 mm
08:16 AM 44.4°F6.9°C 42.4°F5.8°C 93% 2.9 mph NE4.7 kmh NE 4.9 mph7.9 kmh 30.22 in1023.4 mb 0.00 in0.0 mm 0.00 in0.0 mm 0.01 in0.3 mm
08:26 AM 45.3°F7.4°C 43.3°F6.3°C 93% 0.9 mph NNE1.4 kmh NNE 4.9 mph7.9 kmh 30.22 in1023.4 mb 0.00 in0.0 mm 0.00 in0.0 mm 0.01 in0.3 mm
08:36 AM 46.2°F7.9°C 44.1°F6.7°C 92% 2.9 mph ENE4.7 kmh ENE 6.0 mph9.7 kmh 30.22 in1023.4 mb 0.00 in0.0 mm 0.00 in0.0 mm 0.01 in0.3 mm
08:46 AM 47.5°F8.6°C 45.0°F7.2°C 91% 2.0 mph E3.2 kmh E 4.0 mph6.4 kmh 30.23 in1023.7 mb 0.00 in0.0 mm 0.00 in0.0 mm 0.01 in0.3 mm
08:56 AM 48.6°F9.2°C 45.5°F7.5°C 89% 2.9 mph NE4.7 kmh NE 6.9 mph11.1 kmh 30.23 in1023.7 mb 0.00 in0.0 mm 0.00 in0.0 mm 0.01 in0.3 mm
09:06 AM 49.6°F9.8°C 46.2°F7.9°C 88% 2.9 mph NE4.7 kmh NE 6.9 mph11.1 kmh 30.23 in1023.7 mb 0.00 in0.0 mm 0.00 in0.0 mm 0.01 in0.3 mm
09:16 AM 50.7°F10.4°C 46.8°F8.2°C 86% 2.9 mph ENE4.7 kmh ENE 6.9 mph11.1 kmh 30.23 in1023.7 mb 0.00 in0.0 mm 0.00 in0.0 mm 0.01 in0.3 mm
09:26 AM 52.2°F11.2°C 47.5°F8.6°C 84% 2.0 mph NE3.2 kmh NE 4.9 mph7.9 kmh 30.24 in1024.0 mb 0.00 in0.0 mm 0.00 in0.0 mm 0.01 in0.3 mm
09:36 AM 53.4°F11.9°C 47.7°F8.7°C 81% 2.0 mph NE3.2 kmh NE 4.9 mph7.9 kmh 30.24 in1024.0 mb 0.00 in0.0 mm 0.00 in0.0 mm 0.01 in0.3 mm
09:46 AM 54.7°F12.6°C 47.7°F8.7°C 77% 2.9 mph NE4.7 kmh NE 6.0 mph9.7 kmh 30.24 in1024.0 mb 0.00 in0.0 mm 0.00 in0.0 mm 0.01 in0.3 mm
09:56 AM 56.5°F13.6°C 48.0°F8.9°C 73% 2.0 mph N3.2 kmh N 4.9 mph7.9 kmh 30.24 in1024.0 mb 0.00 in0.0 mm 0.00 in0.0 mm 0.01 in0.3 mm
10:06 AM 57.4°F14.1°C 47.3°F8.5°C 69% 2.0 mph E3.2 kmh E 4.9 mph7.9 kmh 30.24 in1024.0 mb 0.00 in0.0 mm 0.00 in0.0 mm 0.01 in0.3 mm
10:16 AM 58.3°F14.6°C 46.6°F8.1°C 65% 2.9 mph ENE4.7 kmh ENE 4.9 mph7.9 kmh 30.24 in1024.0 mb 0.00 in0.0 mm 0.00 in0.0 mm 0.01 in0.3 mm
10:26 AM 59.7°F15.4°C 47.5°F8.6°C 64% 2.0 mph NNE3.2 kmh NNE 4.9 mph7.9 kmh 30.24 in1024.0 mb 0.00 in0.0 mm 0.00 in0.0 mm 0.01 in0.3 mm
10:36 AM 60.6°F15.9°C 48.7°F9.3°C 65% 2.0 mph NE3.2 kmh NE 4.9 mph7.9 kmh 30.23 in1023.7 mb 0.00 in0.0 mm 0.00 in0.0 mm 0.01 in0.3 mm
10:46 AM 61.2°F16.2°C 48.0°F8.9°C 62% 2.9 mph NE4.7 kmh NE 4.9 mph7.9 kmh 30.23 in1023.7 mb 0.00 in0.0 mm 0.00 in0.0 mm 0.01 in0.3 mm
10:56 AM 62.1°F16.7°C 48.9°F9.4°C 62% 2.0 mph ENE3.2 kmh ENE 4.9 mph7.9 kmh 30.23 in1023.7 mb 0.00 in0.0 mm 0.00 in0.0 mm 0.01 in0.3 mm
11:07 AM 63.0°F17.2°C 48.0°F8.9°C 58% 2.9 mph NE4.7 kmh NE 6.0 mph9.7 kmh 30.23 in1023.7 mb 0.00 in0.0 mm 0.00 in0.0 mm 0.01 in0.3 mm
11:17 AM 63.9°F17.7°C 47.8°F8.8°C 56% 2.0 mph E3.2 kmh E 4.0 mph6.4 kmh 30.23 in1023.7 mb 0.00 in0.0 mm 0.00 in0.0 mm 0.01 in0.3 mm
11:27 AM 64.9°F18.3°C 49.3°F9.6°C 57% 0.9 mph NW1.4 kmh NW 5.0 mph8.0 kmh 30.23 in1023.7 mb 0.00 in0.0 mm 0.00 in0.0 mm 0.01 in0.3 mm
11:37 AM 65.8°F18.8°C 48.7°F9.3°C 54% 0.9 mph WNW1.4 kmh WNW 4.0 mph6.4 kmh 30.23 in1023.7 mb 0.00 in0.0 mm 0.00 in0.0 mm 0.01 in0.3 mm
11:47 AM 66.9°F19.4°C 47.7°F8.7°C 50% 2.0 mph NW3.2 kmh NW 4.9 mph7.9 kmh 30.22 in1023.4 mb 0.00 in0.0 mm 0.00 in0.0 mm 0.01 in0.3 mm
11:57 AM 67.6°F19.8°C 48.4°F9.1°C 50% 2.9 mph SW4.7 kmh SW 4.9 mph7.9 kmh 30.22 in1023.4 mb 0.00 in0.0 mm 0.00 in0.0 mm 0.01 in0.3 mm
12:07 PM 68.4°F20.2°C 46.2°F7.9°C 45% 2.9 mph W4.7 kmh W 8.1 mph13.0 kmh 30.22 in1023.4 mb 0.00 in0.0 mm 0.00 in0.0 mm 0.01 in0.3 mm
12:17 PM 69.1°F20.6°C 45.7°F7.6°C 43% 2.9 mph S4.7 kmh S 6.0 mph9.7 kmh 30.21 in1023.0 mb 0.00 in0.0 mm 0.00 in0.0 mm 0.01 in0.3 mm
12:27 PM 68.7°F20.4°C 48.2°F9.0°C 48% 4.0 mph WNW6.4 kmh WNW 9.0 mph14.5 kmh 30.21 in1023.0 mb 0.00 in0.0 mm 0.00 in0.0 mm 0.01 in0.3 mm
12:37 PM 68.7°F20.4°C 48.2°F9.0°C 48% 4.9 mph WNW7.9 kmh WNW 8.1 mph13.0 kmh 30.21 in1023.0 mb 0.00 in0.0 mm 0.00 in0.0 mm 0.01 in0.3 mm
12:47 PM 68.7°F20.4°C 48.7°F9.3°C 49% 4.9 mph W7.9 kmh W 9.0 mph14.5 kmh 30.20 in1022.7 mb 0.00 in0.0 mm 0.00 in0.0 mm 0.01 in0.3 mm
12:57 PM 68.5°F20.3°C 48.0°F8.9°C 48% 4.9 mph WNW7.9 kmh WNW 10.1 mph16.3 kmh 30.20 in1022.7 mb 0.00 in0.0 mm 0.00 in0.0 mm 0.01 in0.3 mm
01:07 PM 69.1°F20.6°C 49.6°F9.8°C 50% 4.9 mph SW7.9 kmh SW 6.9 mph11.1 kmh 30.19 in1022.4 mb 0.00 in0.0 mm 0.00 in0.0 mm 0.01 in0.3 mm
01:17 PM 69.1°F20.6°C 51.8°F11.0°C 54% 6.0 mph WSW9.7 kmh WSW 11.0 mph17.7 kmh 30.19 in1022.4 mb 0.00 in0.0 mm 0.00 in0.0 mm 0.01 in0.3 mm
01:27 PM 69.1°F20.6°C 52.7°F11.5°C 56% 6.0 mph SW9.7 kmh SW 12.1 mph19.5 kmh 30.18 in1022.0 mb 0.00 in0.0 mm 0.00 in0.0 mm 0.01 in0.3 mm
01:37 PM 69.8°F21.0°C 52.0°F11.1°C 53% 4.9 mph WSW7.9 kmh WSW 8.9 mph14.3 kmh 30.18 in1022.0 mb 0.00 in0.0 mm 0.00 in0.0 mm 0.01 in0.3 mm
01:47 PM 69.1°F20.6°C 50.2°F10.1°C 51% 6.0 mph W9.7 kmh W 10.0 mph16.1 kmh 30.17 in1021.7 mb 0.00 in0.0 mm 0.00 in0.0 mm 0.01 in0.3 mm
01:57 PM 69.3°F20.7°C 50.9°F10.5°C 52% 6.0 mph WSW9.7 kmh WSW 10.1 mph16.3 kmh 30.17 in1021.7 mb 0.00 in0.0 mm 0.00 in0.0 mm 0.01 in0.3 mm
02:07 PM 68.7°F20.4°C 50.9°F10.5°C 53% 6.0 mph W9.7 kmh W 11.0 mph17.7 kmh 30.17 in1021.7 mb 0.00 in0.0 mm 0.00 in0.0 mm 0.01 in0.3 mm
02:17 PM 68.4°F20.2°C 51.1°F10.6°C 54% 6.9 mph NW11.1 kmh NW 12.0 mph19.3 kmh 30.16 in1021.3 mb 0.00 in0.0 mm 0.00 in0.0 mm 0.01 in0.3 mm
02:27 PM 68.4°F20.2°C 50.5°F10.3°C 53% 6.9 mph SW11.1 kmh SW 12.1 mph19.5 kmh 30.16 in1021.3 mb 0.00 in0.0 mm 0.00 in0.0 mm 0.01 in0.3 mm
02:37 PM 68.5°F20.3°C 49.6°F9.8°C 51% 6.0 mph W9.7 kmh W 8.9 mph14.3 kmh 30.15 in1021.0 mb 0.00 in0.0 mm 0.00 in0.0 mm 0.01 in0.3 mm
02:47 PM 68.9°F20.5°C 49.5°F9.7°C 50% 4.9 mph WSW7.9 kmh WSW 8.9 mph14.3 kmh 30.15 in1021.0 mb 0.00 in0.0 mm 0.00 in0.0 mm 0.01 in0.3 mm
02:57 PM 69.3°F20.7°C 49.8°F9.9°C 50% 4.9 mph SW7.9 kmh SW 8.9 mph14.3 kmh 30.15 in1021.0 mb 0.00 in0.0 mm 0.00 in0.0 mm 0.01 in0.3 mm
03:07 PM 69.3°F20.7°C 48.2°F9.0°C 47% 4.9 mph W7.9 kmh W 8.9 mph14.3 kmh 30.15 in1021.0 mb 0.00 in0.0 mm 0.00 in0.0 mm 0.01 in0.3 mm
03:17 PM 69.3°F20.7°C 49.3°F9.6°C 49% 6.0 mph WSW9.7 kmh WSW 10.1 mph16.3 kmh 30.14 in1020.7 mb 0.00 in0.0 mm 0.00 in0.0 mm 0.01 in0.3 mm
03:27 PM 68.9°F20.5°C 47.8°F8.8°C 47% 6.0 mph W9.7 kmh W 10.1 mph16.3 kmh 30.14 in1020.7 mb 0.00 in0.0 mm 0.00 in0.0 mm 0.01 in0.3 mm
03:37 PM 68.9°F20.5°C 47.3°F8.5°C 46% 6.0 mph WNW9.7 kmh WNW 10.0 mph16.1 kmh 30.14 in1020.7 mb 0.00 in0.0 mm 0.00 in0.0 mm 0.01 in0.3 mm
03:47 PM 69.4°F20.8°C 45.3°F7.4°C 42% 6.0 mph WNW9.7 kmh WNW 11.0 mph17.7 kmh 30.14 in1020.7 mb 0.00 in0.0 mm 0.00 in0.0 mm 0.01 in0.3 mm
03:57 PM 69.6°F20.9°C 44.2°F6.8°C 40% 4.9 mph WSW7.9 kmh WSW 10.0 mph16.1 kmh 30.14 in1020.7 mb 0.00 in0.0 mm 0.00 in0.0 mm 0.01 in0.3 mm
04:07 PM 70.3°F21.3°C 45.0°F7.2°C 40% 2.9 mph W4.7 kmh W 8.1 mph13.0 kmh 30.13 in1020.3 mb 0.00 in0.0 mm 0.00 in0.0 mm 0.01 in0.3 mm
04:17 PM 70.7°F21.5°C 45.1°F7.3°C 40% 4.9 mph SW7.9 kmh SW 8.1 mph13.0 kmh 30.13 in1020.3 mb 0.00 in0.0 mm 0.00 in0.0 mm 0.01 in0.3 mm
04:27 PM 70.9°F21.6°C 44.1°F6.7°C 38% 4.0 mph SW6.4 kmh SW 8.1 mph13.0 kmh 30.12 in1020.0 mb 0.00 in0.0 mm 0.00 in0.0 mm 0.01 in0.3 mm
04:37 PM 71.1°F21.7°C 44.8°F7.1°C 39% 4.0 mph WSW6.4 kmh WSW 9.0 mph14.5 kmh 30.12 in1020.0 mb 0.00 in0.0 mm 0.00 in0.0 mm 0.01 in0.3 mm
04:47 PM 71.1°F21.7°C 44.2°F6.8°C 38% 4.0 mph WSW6.4 kmh WSW 6.9 mph11.1 kmh 30.12 in1020.0 mb 0.00 in0.0 mm 0.00 in0.0 mm 0.01 in0.3 mm
04:57 PM 71.4°F21.9°C 44.4°F6.9°C 38% 4.0 mph WSW6.4 kmh WSW 6.9 mph11.1 kmh 30.12 in1020.0 mb 0.00 in0.0 mm 0.00 in0.0 mm 0.01 in0.3 mm
05:07 PM 70.9°F21.6°C 44.8°F7.1°C 39% 4.0 mph WNW6.4 kmh WNW 6.9 mph11.1 kmh 30.12 in1020.0 mb 0.00 in0.0 mm 0.00 in0.0 mm 0.01 in0.3 mm
05:17 PM 70.5°F21.4°C 43.7°F6.5°C 38% 4.0 mph W6.4 kmh W 6.9 mph11.1 kmh 30.12 in1020.0 mb 0.00 in0.0 mm 0.00 in0.0 mm 0.01 in0.3 mm
05:27 PM 70.3°F21.3°C 45.0°F7.2°C 40% 2.9 mph SW4.7 kmh SW 4.9 mph7.9 kmh 30.12 in1020.0 mb 0.00 in0.0 mm 0.00 in0.0 mm 0.01 in0.3 mm
05:37 PM 70.3°F21.3°C 43.5°F6.4°C 38% 2.9 mph WSW4.7 kmh WSW 6.0 mph9.7 kmh 30.13 in1020.3 mb 0.00 in0.0 mm 0.00 in0.0 mm 0.01 in0.3 mm
05:47 PM 69.4°F20.8°C 44.1°F6.7°C 40% 2.9 mph S4.7 kmh S 6.0 mph9.7 kmh 30.13 in1020.3 mb 0.00 in0.0 mm 0.00 in0.0 mm 0.01 in0.3 mm
05:57 PM 69.6°F20.9°C 42.8°F6.0°C 38% 2.0 mph WSW3.2 kmh WSW 6.0 mph9.7 kmh 30.13 in1020.3 mb 0.00 in0.0 mm 0.00 in0.0 mm 0.01 in0.3 mm
06:07 PM 68.9°F20.5°C 43.0°F6.1°C 39% 2.0 mph S3.2 kmh S 4.9 mph7.9 kmh 30.14 in1020.7 mb 0.00 in0.0 mm 0.00 in0.0 mm 0.01 in0.3 mm
06:17 PM 68.2°F20.1°C 43.0°F6.1°C 40% 2.0 mph SW3.2 kmh SW 4.0 mph6.4 kmh 30.14 in1020.7 mb 0.00 in0.0 mm 0.00 in0.0 mm 0.01 in0.3 mm
06:27 PM 67.1°F19.5°C 41.9°F5.5°C 40% 2.0 mph SE3.2 kmh SE 5.0 mph8.0 kmh 30.14 in1020.7 mb 0.00 in0.0 mm 0.00 in0.0 mm 0.01 in0.3 mm
06:37 PM 65.8°F18.8°C 40.8°F4.9°C 40% 2.9 mph S4.7 kmh S 6.0 mph9.7 kmh 30.14 in1020.7 mb 0.00 in0.0 mm 0.00 in0.0 mm 0.01 in0.3 mm
06:47 PM 64.6°F18.1°C 40.3°F4.6°C 41% 2.9 mph S4.7 kmh S 4.0 mph6.4 kmh 30.15 in1021.0 mb 0.00 in0.0 mm 0.00 in0.0 mm 0.01 in0.3 mm
06:57 PM 63.3°F17.4°C 39.2°F4.0°C 41% 2.9 mph SSE4.7 kmh SSE 4.9 mph7.9 kmh 30.15 in1021.0 mb 0.00 in0.0 mm 0.00 in0.0 mm 0.01 in0.3 mm
07:07 PM 62.4°F16.9°C 40.3°F4.6°C 44% 2.0 mph SE3.2 kmh SE 2.9 mph4.7 kmh 30.15 in1021.0 mb 0.00 in0.0 mm 0.00 in0.0 mm 0.01 in0.3 mm
07:17 PM 61.5°F16.4°C 41.2°F5.1°C 47% 2.0 mph SE3.2 kmh SE 3.0 mph4.8 kmh 30.16 in1021.3 mb 0.00 in0.0 mm 0.00 in0.0 mm 0.01 in0.3 mm
07:27 PM 60.8°F16.0°C 42.6°F5.9°C 51% 2.0 mph SE3.2 kmh SE 2.9 mph4.7 kmh 30.16 in1021.3 mb 0.00 in0.0 mm 0.00 in0.0 mm 0.01 in0.3 mm
07:37 PM 59.7°F15.4°C 42.6°F5.9°C 53% 2.0 mph SE3.2 kmh SE 2.9 mph4.7 kmh 30.16 in1021.3 mb 0.00 in0.0 mm 0.00 in0.0 mm 0.01 in0.3 mm
07:47 PM 59.2°F15.1°C 43.5°F6.4°C 56% 2.0 mph SE3.2 kmh SE 2.9 mph4.7 kmh 30.17 in1021.7 mb 0.00 in0.0 mm 0.00 in0.0 mm 0.01 in0.3 mm
07:57 PM 57.9°F14.4°C 43.7°F6.5°C 59% 2.0 mph SE3.2 kmh SE 2.9 mph4.7 kmh 30.17 in1021.7 mb 0.00 in0.0 mm 0.00 in0.0 mm 0.01 in0.3 mm
08:07 PM 57.6°F14.2°C 43.3°F6.3°C 59% 2.0 mph ESE3.2 kmh ESE 4.0 mph6.4 kmh 30.17 in1021.7 mb 0.00 in0.0 mm 0.00 in0.0 mm 0.01 in0.3 mm
08:17 PM 57.4°F14.1°C 44.1°F6.7°C 61% 0.9 mph SE1.4 kmh SE 2.9 mph4.7 kmh 30.17 in1021.7 mb 0.00 in0.0 mm 0.00 in0.0 mm 0.01 in0.3 mm
08:27 PM 56.7°F13.7°C 45.0°F7.2°C 65% Calm Calm 0.9 mph1.4 kmh 30.17 in1021.7 mb 0.00 in0.0 mm 0.00 in0.0 mm 0.01 in0.3 mm
08:37 PM 56.1°F13.4°C 44.1°F6.7°C 64% Calm Calm 0.9 mph1.4 kmh 30.17 in1021.7 mb 0.00 in0.0 mm 0.00 in0.0 mm 0.01 in0.3 mm
08:47 PM 55.2°F12.9°C 44.4°F6.9°C 67% 0.9 mph E1.4 kmh E 3.0 mph4.8 kmh 30.17 in1021.7 mb 0.00 in0.0 mm 0.00 in0.0 mm 0.01 in0.3 mm
08:57 PM 55.0°F12.8°C 44.6°F7.0°C 68% 0.9 mph E1.4 kmh E 2.9 mph4.7 kmh 30.17 in1021.7 mb 0.00 in0.0 mm 0.00 in0.0 mm 0.01 in0.3 mm
09:07 PM 53.4°F11.9°C 45.0°F7.2°C 73% 0.9 mph SE1.4 kmh SE 2.0 mph3.2 kmh 30.18 in1022.0 mb 0.00 in0.0 mm 0.00 in0.0 mm 0.01 in0.3 mm
09:17 PM 52.5°F11.4°C 44.4°F6.9°C 74% Calm Calm 3.0 mph4.8 kmh 30.18 in1022.0 mb 0.00 in0.0 mm 0.00 in0.0 mm 0.01 in0.3 mm
09:27 PM 53.1°F11.7°C 43.9°F6.6°C 71% 2.0 mph ENE3.2 kmh ENE 4.9 mph7.9 kmh 30.18 in1022.0 mb 0.00 in0.0 mm 0.00 in0.0 mm 0.01 in0.3 mm
09:37 PM 52.9°F11.6°C 44.4°F6.9°C 73% 2.9 mph ENE4.7 kmh ENE 4.9 mph7.9 kmh 30.18 in1022.0 mb 0.00 in0.0 mm 0.00 in0.0 mm 0.01 in0.3 mm
09:47 PM 53.2°F11.8°C 44.4°F6.9°C 72% 2.9 mph ENE4.7 kmh ENE 6.0 mph9.7 kmh 30.18 in1022.0 mb 0.00 in0.0 mm 0.00 in0.0 mm 0.01 in0.3 mm
09:57 PM 53.2°F11.8°C 44.1°F6.7°C 71% 2.0 mph ENE3.2 kmh ENE 4.9 mph7.9 kmh 30.18 in1022.0 mb 0.00 in0.0 mm 0.00 in0.0 mm 0.01 in0.3 mm
10:07 PM 52.5°F11.4°C 43.7°F6.5°C 72% 2.0 mph E3.2 kmh E 6.0 mph9.7 kmh 30.19 in1022.4 mb 0.00 in0.0 mm 0.00 in0.0 mm 0.01 in0.3 mm
10:17 PM 52.3°F11.3°C 43.9°F6.6°C 73% 4.0 mph E6.4 kmh E 6.0 mph9.7 kmh 30.19 in1022.4 mb 0.00 in0.0 mm 0.00 in0.0 mm 0.01 in0.3 mm
10:27 PM 51.6°F10.9°C 44.2°F6.8°C 76% 4.0 mph NE6.4 kmh NE 6.9 mph11.1 kmh 30.19 in1022.4 mb 0.00 in0.0 mm 0.00 in0.0 mm 0.01 in0.3 mm
10:37 PM 50.9°F10.5°C 43.9°F6.6°C 77% 4.0 mph NE6.4 kmh NE 6.9 mph11.1 kmh 30.19 in1022.4 mb 0.00 in0.0 mm 0.00 in0.0 mm 0.01 in0.3 mm
10:47 PM 50.4°F10.2°C 43.7°F6.5°C 78% 2.9 mph NE4.7 kmh NE 4.9 mph7.9 kmh 30.19 in1022.4 mb 0.00 in0.0 mm 0.00 in0.0 mm 0.01 in0.3 mm
10:57 PM 50.2°F10.1°C 43.3°F6.3°C 77% 2.0 mph E3.2 kmh E 4.0 mph6.4 kmh 30.19 in1022.4 mb 0.00 in0.0 mm 0.00 in0.0 mm 0.01 in0.3 mm
11:07 PM 49.8°F9.9°C 42.6°F5.9°C 76% 2.9 mph NE4.7 kmh NE 8.1 mph13.0 kmh 30.19 in1022.4 mb 0.00 in0.0 mm 0.00 in0.0 mm 0.01 in0.3 mm
11:17 PM 49.5°F9.7°C 42.3°F5.7°C 76% 2.9 mph ENE4.7 kmh ENE 6.0 mph9.7 kmh 30.19 in1022.4 mb 0.00 in0.0 mm 0.00 in0.0 mm 0.01 in0.3 mm
11:27 PM 49.1°F9.5°C 41.5°F5.3°C 75% 2.0 mph E3.2 kmh E 4.9 mph7.9 kmh 30.19 in1022.4 mb 0.00 in0.0 mm 0.00 in0.0 mm 0.01 in0.3 mm
11:37 PM 48.4°F9.1°C 41.2°F5.1°C 76% 0.9 mph E1.4 kmh E 4.0 mph6.4 kmh 30.19 in1022.4 mb 0.00 in0.0 mm 0.00 in0.0 mm 0.01 in0.3 mm
11:47 PM 48.4°F9.1°C 41.5°F5.3°C 77% 2.0 mph ENE3.2 kmh ENE 6.9 mph11.1 kmh 30.18 in1022.0 mb 0.00 in0.0 mm 0.00 in0.0 mm 0.01 in0.3 mm
11:57 PM 47.8°F8.8°C 41.0°F5.0°C 77% 2.0 mph ENE3.2 kmh ENE 6.9 mph11.1 kmh 30.18 in1022.0 mb 0.00 in0.0 mm 0.00 in0.0 mm 0.01 in0.3 mm